Time;durP1;ratioP1;P1;durP2;ratioP2;P2;SDS_P1;SDS_P2;PMS_P1;PMS_P2;Temp;Humidity;BMP_temperature;BMP_pressure;BME280_temperature;BME280_humidity;BME280_pressure;Samples;Min_cycle;Max_cycle;Signal;HPM_P1;HPM_P2
2022/07/09 00:02:22;;;;;;;;;;;;;;;25.33;38.57;100420.94;5017547;28;19914;-82
2022/07/09 00:04:47;;;;;;;;;;;;;;;25.36;38.46;100420.38;5017341;28;19964;-79
2022/07/09 00:07:12;;;;;;;;;;;;;;;25.36;38.33;100408.63;5016567;28;20363;-78
2022/07/09 00:09:38;;;;;;;;;;;;;;;25.38;38.36;100417.34;5017297;28;19979;-78
2022/07/09 00:12:03;;;;;;;;;;;;;;;25.37;38.52;100411.09;5017300;28;19913;-78
2022/07/09 00:14:29;;;;;;;;;;;;;;;25.35;38.54;100412.47;5017009;28;20360;-80
2022/07/09 00:16:54;;;;;;;;;;;;;;;25.38;38.45;100403.69;5017077;28;19913;-81
2022/07/09 00:19:20;;;;;;;;;;;;;;;25.33;38.45;100399.06;5017156;28;20260;-78
2022/07/09 00:21:45;;;;;;;;;;;;;;;25.35;38.19;100396.03;5016779;28;19913;-77
2022/07/09 00:24:11;;;;;;;;;;;;;;;25.36;38.29;100390.28;5017171;28;19920;-79
2022/07/09 00:26:36;;;;;;;;;;;;;;;25.36;38.40;100397.69;5017144;28;19991;-79
2022/07/09 00:29:01;;;;;;;;;;;;;;;25.38;38.36;100392.75;5017116;28;19975;-80
2022/07/09 00:31:26;;;;;;;;;;;;;;;25.38;38.19;100395.47;5016904;28;19913;-81
2022/07/09 00:33:52;;;;;;;;;;;;;;;25.37;38.28;100391.09;5016716;28;20288;-81
2022/07/09 00:36:18;;;;;;;;;;;;;;;25.38;38.25;100392.75;5017161;28;19913;-81
2022/07/09 00:38:43;;;;;;;;;;;;;;;25.35;38.37;100387.84;5017110;28;20268;-78
2022/07/09 00:41:08;;;;;;;;;;;;;;;25.36;38.10;100387.56;5016683;28;19917;-77
2022/07/09 00:43:33;;;;;;;;;;;;;;;25.35;38.11;100385.09;5016598;28;19917;-79
2022/07/09 00:45:59;;;;;;;;;;;;;;;25.32;38.39;100386.50;5016853;28;19914;-79
2022/07/09 00:48:24;;;;;;;;;;;;;;;25.33;38.05;100379.91;5016142;28;19917;-79
2022/07/09 00:50:49;;;;;;;;;;;;;;;25.35;37.97;100380.44;5016046;28;19964;-79
2022/07/09 00:53:15;;;;;;;;;;;;;;;25.36;38.08;100375.81;5016627;28;19913;-77
2022/07/09 00:55:40;;;;;;;;;;;;;;;25.37;38.21;100370.06;5016032;28;20316;-77
2022/07/09 00:58:06;;;;;;;;;;;;;;;25.40;38.01;100368.66;5016570;28;19913;-78
2022/07/09 01:00:32;;;;;;;;;;;;;;;25.39;38.07;100367.84;5016678;28;19914;-79
2022/07/09 01:02:57;;;;;;;;;;;;;;;25.37;38.10;100356.38;5016386;28;19921;-82
2022/07/09 01:05:22;;;;;;;;;;;;;;;25.38;37.97;100363.47;5016546;28;20343;-80
2022/07/09 01:07:48;;;;;;;;;;;;;;;25.39;37.98;100364.25;5016483;28;19936;-79
2022/07/09 01:10:13;;;;;;;;;;;;;;;25.38;37.90;100351.72;5016502;28;19914;-78
2022/07/09 01:12:38;;;;;;;;;;;;;;;25.39;38.05;100353.31;5014923;28;20311;-79
2022/07/09 01:15:04;;;;;;;;;;;;;;;25.38;37.79;100346.25;5016173;28;20020;-79
2022/07/09 01:17:36;;;;;;;;;;;;;;;25.40;37.96;100333.09;5015435;28;19935;-81
2022/07/09 01:20:01;;;;;;;;;;;;;;;25.37;38.01;100329.03;5013901;28;19992;-80
2022/07/09 01:22:26;;;;;;;;;;;;;;;25.40;38.06;100327.63;5015960;28;19949;-82
2022/07/09 01:24:52;;;;;;;;;;;;;;;25.38;38.08;100329.81;5015303;28;20019;-79
2022/07/09 01:27:17;;;;;;;;;;;;;;;25.38;38.09;100325.16;5015831;28;19913;-76
2022/07/09 01:29:48;;;;;;;;;;;;;;;25.40;38.00;100322.13;5002763;28;19913;-78
2022/07/09 01:32:14;;;;;;;;;;;;;;;25.38;37.89;100324.34;4996232;28;19914;-78
2022/07/09 01:34:39;;;;;;;;;;;;;;;25.38;37.93;100325.16;4994558;28;20375;-78
2022/07/09 01:37:04;;;;;;;;;;;;;;;25.42;38.13;100325.41;4996058;28;20327;-79
2022/07/09 01:39:29;;;;;;;;;;;;;;;25.38;37.88;100319.69;4995899;28;19918;-79
2022/07/09 01:41:55;;;;;;;;;;;;;;;25.40;37.97;100319.41;5013456;28;19921;-81
2022/07/09 01:44:20;;;;;;;;;;;;;;;25.41;38.09;100323.78;5015524;28;19924;-77
2022/07/09 01:46:45;;;;;;;;;;;;;;;25.40;38.10;100314.75;5015802;28;20011;-79
2022/07/09 01:49:10;;;;;;;;;;;;;;;25.42;37.97;100319.94;5015345;28;20358;-78
2022/07/09 01:51:36;;;;;;;;;;;;;;;25.40;38.02;100316.66;5014890;28;20351;-78
2022/07/09 01:54:01;;;;;;;;;;;;;;;25.38;38.11;100313.41;5015357;28;19967;-79
2022/07/09 01:56:26;;;;;;;;;;;;;;;25.34;37.97;100309.63;5015003;28;20371;-81
2022/07/09 01:58:52;;;;;;;;;;;;;;;25.39;37.75;100320.50;5014886;28;19917;-80
2022/07/09 02:01:17;;;;;;;;;;;;;;;25.39;38.04;100309.56;5015377;28;20356;-78
2022/07/09 02:03:42;;;;;;;;;;;;;;;25.37;37.84;100306.31;5015403;28;19917;-78
2022/07/09 02:06:08;;;;;;;;;;;;;;;25.38;37.90;100308.75;5014759;28;19913;-78
2022/07/09 02:08:33;;;;;;;;;;;;;;;25.41;37.68;100307.38;5015348;28;20000;-80
2022/07/09 02:10:59;;;;;;;;;;;;;;;25.41;37.99;100307.38;5015271;28;20323;-79
2022/07/09 02:13:24;;;;;;;;;;;;;;;25.39;37.85;100304.09;5015024;28;20413;-78
2022/07/09 02:15:49;;;;;;;;;;;;;;;25.40;37.73;100301.06;5015166;28;19933;-78
2022/07/09 02:18:14;;;;;;;;;;;;;;;25.40;37.96;100303.00;5014982;28;20335;-78
2022/07/09 02:20:40;;;;;;;;;;;;;;;25.41;37.89;100302.72;5014979;28;19917;-77
2022/07/09 02:23:05;;;;;;;;;;;;;;;25.43;37.75;100302.41;5014990;28;19914;-78
2022/07/09 02:25:30;;;;;;;;;;;;;;;25.40;37.81;100300.25;5014832;28;19924;-78
2022/07/09 02:27:55;;;;;;;;;;;;;;;25.40;37.71;100305.72;5014940;28;19921;-80
2022/07/09 02:30:21;;;;;;;;;;;;;;;25.41;37.82;100299.97;5014389;28;20275;-79
2022/07/09 02:32:46;;;;;;;;;;;;;;;25.40;37.74;100303.00;5014197;28;19956;-78
2022/07/09 02:35:11;;;;;;;;;;;;;;;25.38;37.87;100300.53;5014714;28;19917;-78
2022/07/09 02:37:36;;;;;;;;;;;;;;;25.43;37.64;100299.69;5014462;28;19913;-78
2022/07/09 02:40:02;;;;;;;;;;;;;;;25.44;37.70;100304.03;5013937;28;19921;-80
2022/07/09 02:42:27;;;;;;;;;;;;;;;25.38;37.64;100302.47;5015163;28;19925;-79
2022/07/09 02:44:52;;;;;;;;;;;;;;;25.42;37.49;100303.50;5014118;28;20385;-79
2022/07/09 02:47:18;;;;;;;;;;;;;;;25.40;37.35;100298.31;5014415;28;19913;-78
2022/07/09 02:49:43;;;;;;;;;;;;;;;25.39;37.58;100295.88;5014618;28;20370;-78
2022/07/09 02:52:08;;;;;;;;;;;;;;;25.41;37.29;100299.97;5014227;28;19920;-77
2022/07/09 02:54:34;;;;;;;;;;;;;;;25.41;37.63;100299.97;5014297;28;19996;-80
2022/07/09 02:56:59;;;;;;;;;;;;;;;25.42;37.50;100298.03;5014276;28;20366;-79
2022/07/09 02:59:25;;;;;;;;;;;;;;;25.44;37.41;100298.56;5014280;28;19952;-78
2022/07/09 03:01:51;;;;;;;;;;;;;;;25.42;37.60;100300.78;5014335;28;20340;-77
2022/07/09 03:04:16;;;;;;;;;;;;;;;25.42;37.48;100293.41;5014412;28;19913;-78
2022/07/09 03:06:41;;;;;;;;;;;;;;;25.42;37.65;100292.56;5014618;28;19914;-78
2022/07/09 03:09:06;;;;;;;;;;;;;;;25.42;37.56;100292.56;5014238;28;20379;-81
2022/07/09 03:11:32;;;;;;;;;;;;;;;25.41;37.69;100286.28;5014434;28;19913;-79
2022/07/09 03:13:57;;;;;;;;;;;;;;;25.44;37.46;100284.88;5014769;28;20332;-78
2022/07/09 03:16:22;;;;;;;;;;;;;;;25.46;37.73;100279.97;5014493;28;19967;-78
2022/07/09 03:18:47;;;;;;;;;;;;;;;25.44;37.35;100279.41;5014356;28;19913;-78
2022/07/09 03:21:13;;;;;;;;;;;;;;;25.42;37.54;100270.69;5014284;28;19921;-79
2022/07/09 03:23:39;;;;;;;;;;;;;;;25.44;37.72;100268.47;5014030;28;19913;-80
2022/07/09 03:26:05;;;;;;;;;;;;;;;25.41;37.69;100263.59;4997070;28;19917;-80
2022/07/09 03:28:30;;;;;;;;;;;;;;;25.41;37.62;100252.66;4997130;28;20362;-80
2022/07/09 03:30:56;;;;;;;;;;;;;;;25.36;37.82;100258.19;5013970;28;19913;-80
2022/07/09 03:33:21;;;;;;;;;;;;;;;25.37;37.96;100251.59;5013928;28;20355;-79
2022/07/09 03:35:46;;;;;;;;;;;;;;;25.38;37.98;100259.50;5013785;28;19921;-78
2022/07/09 03:38:12;;;;;;;;;;;;;;;25.38;37.90;100259.50;5014021;28;19996;-78
2022/07/09 03:40:37;;;;;;;;;;;;;;;25.38;37.90;100251.31;5014025;28;19917;-78
2022/07/09 03:43:02;;;;;;;;;;;;;;;25.35;38.21;100253.81;5015241;28;20030;-78
2022/07/09 03:45:27;;;;;;;;;;;;;;;25.35;38.14;100262.00;5017739;28;19936;-81
2022/07/09 03:47:53;;;;;;;;;;;;;;;25.38;38.21;100258.72;5017441;28;19913;-78
2022/07/09 03:50:18;;;;;;;;;;;;;;;25.35;38.19;100254.63;5017677;28;19940;-78
2022/07/09 03:52:43;;;;;;;;;;;;;;;25.40;38.21;100256.50;5017757;28;19913;-78
2022/07/09 03:55:08;;;;;;;;;;;;;;;25.34;38.17;100252.19;5017372;28;20256;-78
2022/07/09 03:57:34;;;;;;;;;;;;;;;25.38;38.38;100248.56;5017831;28;19913;-80
2022/07/09 03:59:59;;;;;;;;;;;;;;;25.36;38.46;100249.97;5017376;28;20352;-78
2022/07/09 04:02:24;;;;;;;;;;;;;;;25.37;38.28;100246.13;5017197;28;19993;-79
2022/07/09 04:04:50;;;;;;;;;;;;;;;25.38;38.39;100242.28;5017357;28;19917;-79
2022/07/09 04:07:15;;;;;;;;;;;;;;;25.37;38.39;100246.13;5017714;28;20348;-78
2022/07/09 04:09:40;;;;;;;;;;;;;;;25.37;38.37;100237.91;5017461;28;19937;-77
2022/07/09 04:12:06;;;;;;;;;;;;;;;25.37;38.46;100241.50;5017417;28;20228;-79
2022/07/09 04:14:31;;;;;;;;;;;;;;;25.35;38.57;100232.72;5016961;28;19968;-79
2022/07/09 04:16:56;;;;;;;;;;;;;;;25.36;38.60;100234.38;5017272;28;20103;-82
2022/07/09 04:19:22;;;;;;;;;;;;;;;25.39;38.56;100224.75;5017311;28;19921;-78
2022/07/09 04:21:47;;;;;;;;;;;;;;;25.38;38.61;100218.47;5016746;28;20364;-78
2022/07/09 04:24:15;;;;;;;;;;;;;;;25.38;38.59;100231.34;5017644;28;19913;-77
2022/07/09 04:26:40;;;;;;;;;;;;;;;25.34;38.80;100230.31;5017315;28;19963;-78
2022/07/09 04:29:06;;;;;;;;;;;;;;;25.32;38.53;100221.56;5011347;28;20331;-79
2022/07/09 04:31:31;;;;;;;;;;;;;;;25.34;38.61;100219.38;4997394;28;19921;-82
2022/07/09 04:33:56;;;;;;;;;;;;;;;25.32;38.60;100216.09;4997204;28;19914;-79
2022/07/09 04:36:21;;;;;;;;;;;;;;;25.35;38.39;100220.97;4997232;28;19957;-79
2022/07/09 04:38:47;;;;;;;;;;;;;;;25.35;38.53;100212.78;4997909;28;19913;-79
2022/07/09 04:41:12;;;;;;;;;;;;;;;25.40;38.68;100210.00;5008886;28;20364;-79
2022/07/09 04:43:37;;;;;;;;;;;;;;;25.36;38.64;100209.75;5016592;28;19924;-79
2022/07/09 04:46:02;;;;;;;;;;;;;;;25.36;38.50;100211.69;5017388;28;19925;-81
2022/07/09 04:48:28;;;;;;;;;;;;;;;25.33;38.43;100213.06;5016609;28;19913;-80
2022/07/09 04:50:53;;;;;;;;;;;;;;;25.35;38.67;100210.03;5016607;28;19914;-79
2022/07/09 04:53:18;;;;;;;;;;;;;;;25.30;38.61;100205.44;5016830;28;19936;-78
2022/07/09 04:55:43;;;;;;;;;;;;;;;25.31;38.65;100204.34;5016754;28;19914;-78
2022/07/09 04:58:09;;;;;;;;;;;;;;;25.30;38.53;100208.16;5016450;28;19913;-78
2022/07/09 05:00:34;;;;;;;;;;;;;;;25.38;38.50;100209.47;4998610;28;19935;-80
2022/07/09 05:02:59;;;;;;;;;;;;;;;25.32;38.44;100205.16;5016274;28;19928;-82
2022/07/09 05:05:25;;;;;;;;;;;;;;;25.35;38.38;100201.84;5016510;28;19914;-78
2022/07/09 05:07:51;;;;;;;;;;;;;;;25.35;38.30;100190.91;5016244;28;20348;-78
2022/07/09 05:10:16;;;;;;;;;;;;;;;25.35;38.39;100199.09;5016790;28;19913;-77
2022/07/09 05:12:42;;;;;;;;;;;;;;;25.32;38.28;100197.78;5016583;28;19913;-80
2022/07/09 05:15:08;;;;;;;;;;;;;;;25.29;38.30;100195.63;5016201;28;20293;-79
2022/07/09 05:17:34;;;;;;;;;;;;;;;25.34;38.26;100197.50;4998538;28;19996;-81
2022/07/09 05:19:59;;;;;;;;;;;;;;;25.33;38.44;100206.78;5016268;28;19940;-82
2022/07/09 05:22:25;;;;;;;;;;;;;;;25.33;38.27;100195.84;5016530;28;20352;-78
2022/07/09 05:24:50;;;;;;;;;;;;;;;25.33;38.21;100193.91;5016473;28;20351;-78
2022/07/09 05:27:15;;;;;;;;;;;;;;;25.33;38.32;100195.84;5016371;28;19913;-79
2022/07/09 05:29:40;;;;;;;;;;;;;;;25.34;38.21;100198.31;5016325;28;19914;-78
2022/07/09 05:32:06;;;;;;;;;;;;;;;25.33;37.96;100191.19;5015876;28;19913;-81
2022/07/09 05:34:31;;;;;;;;;;;;;;;25.32;38.23;100197.78;5015958;28;20280;-79
2022/07/09 05:36:57;;;;;;;;;;;;;;;25.34;38.40;100192.03;5016597;28;19920;-79
2022/07/09 05:39:23;;;;;;;;;;;;;;;25.29;38.43;100185.50;5016296;28;19917;-78
2022/07/09 05:41:48;;;;;;;;;;;;;;;25.35;37.99;100183.50;5016857;28;19948;-78
2022/07/09 05:44:13;;;;;;;;;;;;;;;25.37;38.22;100175.84;5016119;28;19944;-80
2022/07/09 05:46:38;;;;;;;;;;;;;;;25.40;38.08;100177.97;5015679;28;19940;-82
2022/07/09 05:49:04;;;;;;;;;;;;;;;25.39;38.17;100178.25;5015702;28;19919;-78
2022/07/09 05:51:29;;;;;;;;;;;;;;;25.40;38.08;100175.22;5015733;28;20311;-78
2022/07/09 05:53:54;;;;;;;;;;;;;;;25.36;38.04;100174.19;5015868;28;19914;-77
2022/07/09 05:56:20;;;;;;;;;;;;;;;25.31;38.11;100177.00;5015913;28;19987;-78
2022/07/09 05:58:45;;;;;;;;;;;;;;;25.33;38.13;100174.78;5016177;28;19913;-80
2022/07/09 06:01:12;;;;;;;;;;;;;;;25.33;38.23;100179.44;5015686;28;20345;-82
2022/07/09 06:03:38;;;;;;;;;;;;;;;25.32;38.17;100175.06;5015104;28;19921;-82
2022/07/09 06:06:03;;;;;;;;;;;;;;;25.32;37.99;100175.91;5013696;28;19914;-79
2022/07/09 06:08:28;;;;;;;;;;;;;;;25.38;38.00;100168.44;5015205;28;20005;-77
2022/07/09 06:10:54;;;;;;;;;;;;;;;25.35;38.11;100171.75;5015310;28;20330;-79
2022/07/09 06:13:19;;;;;;;;;;;;;;;25.40;38.01;100167.03;5015220;28;19913;-79
2022/07/09 06:15:44;;;;;;;;;;;;;;;25.42;38.23;100177.69;5015440;28;19968;-79
2022/07/09 06:18:09;;;;;;;;;;;;;;;25.41;37.92;100178.81;5015328;28;20318;-80
2022/07/09 06:20:35;;;;;;;;;;;;;;;25.39;38.01;100165.41;5015387;28;19913;-83
2022/07/09 06:23:00;;;;;;;;;;;;;;;25.37;38.22;100172.28;5015217;28;19924;-78
2022/07/09 06:25:25;;;;;;;;;;;;;;;25.41;38.32;100159.66;5015376;28;20404;-78
2022/07/09 06:27:51;;;;;;;;;;;;;;;25.43;38.12;100169.19;5015347;28;19920;-78
2022/07/09 06:30:19;;;;;;;;;;;;;;;25.35;38.34;100166.28;5001248;28;19918;-79
2022/07/09 06:32:44;;;;;;;;;;;;;;;25.43;38.28;100162.91;4995551;28;19961;-78
2022/07/09 06:35:10;;;;;;;;;;;;;;;25.42;38.23;100164.00;4995549;28;20336;-80
2022/07/09 06:37:35;;;;;;;;;;;;;;;25.43;38.26;100162.91;4995569;28;19913;-80
2022/07/09 06:40:00;;;;;;;;;;;;;;;25.43;38.27;100160.16;4997139;28;19918;-82
2022/07/09 06:42:26;;;;;;;;;;;;;;;25.43;38.32;100162.91;5014864;28;20356;-79
2022/07/09 06:44:51;;;;;;;;;;;;;;;25.43;38.29;100157.44;5015024;28;19952;-77
2022/07/09 06:47:17;;;;;;;;;;;;;;;25.42;38.37;100144.84;5014870;28;20275;-79
2022/07/09 06:49:42;;;;;;;;;;;;;;;25.46;38.33;100140.44;5014655;28;19996;-78
2022/07/09 06:52:07;;;;;;;;;;;;;;;25.44;38.28;100137.16;5015150;28;19921;-81
2022/07/09 06:54:33;;;;;;;;;;;;;;;25.45;38.45;100139.59;4997848;28;20016;-79
2022/07/09 06:56:58;;;;;;;;;;;;;;;25.44;38.20;100138.00;5014920;28;19920;-79
2022/07/09 06:59:23;;;;;;;;;;;;;;;25.45;38.45;100134.13;5014727;28;20344;-79
2022/07/09 07:01:49;;;;;;;;;;;;;;;25.43;38.75;100125.41;5014541;28;19935;-78
2022/07/09 07:04:14;;;;;;;;;;;;;;;25.47;38.55;100131.09;5014816;28;20352;-78
2022/07/09 07:06:43;;;;;;;;;;;;;;;25.42;38.45;100126.53;5014581;28;19967;-79
2022/07/09 07:09:08;;;;;;;;;;;;;;;25.45;38.71;100123.19;5014455;28;19997;-78
2022/07/09 07:11:33;;;;;;;;;;;;;;;25.44;38.68;100121.59;5014539;28;20393;-80
2022/07/09 07:13:59;;;;;;;;;;;;;;;25.46;38.71;100124.84;5014623;28;19914;-81
2022/07/09 07:16:24;;;;;;;;;;;;;;;25.45;38.75;100122.38;5015181;28;19924;-78
2022/07/09 07:18:49;;;;;;;;;;;;;;;25.44;38.86;100116.13;5018414;28;19917;-79
2022/07/09 07:21:14;;;;;;;;;;;;;;;25.41;38.74;100115.88;5018641;28;20004;-78
2022/07/09 07:23:40;;;;;;;;;;;;;;;25.45;38.67;100116.91;5017805;28;19963;-79
2022/07/09 07:26:05;;;;;;;;;;;;;;;25.49;38.50;100126.16;5018166;28;19920;-79
2022/07/09 07:28:30;;;;;;;;;;;;;;;25.42;38.73;100112.88;5017868;28;20273;-78
2022/07/09 07:30:56;;;;;;;;;;;;;;;25.46;38.84;100115.81;5017671;28;19943;-82
2022/07/09 07:33:21;;;;;;;;;;;;;;;25.42;38.59;100112.88;5016939;28;19920;-79
2022/07/09 07:35:47;;;;;;;;;;;;;;;25.43;38.76;100114.47;5018177;28;20406;-78
2022/07/09 07:38:12;;;;;;;;;;;;;;;25.45;38.39;100114.97;5017790;28;20004;-78
2022/07/09 07:40:37;;;;;;;;;;;;;;;25.48;38.54;100116.34;5017820;28;19925;-78
2022/07/09 07:43:03;;;;;;;;;;;;;;;25.50;38.60;100111.38;5016334;28;20375;-78
2022/07/09 07:45:28;;;;;;;;;;;;;;;25.49;38.54;100107.84;5017603;28;19913;-78
2022/07/09 07:47:54;;;;;;;;;;;;;;;25.53;38.50;100104.53;5017842;28;19914;-79
2022/07/09 07:50:20;;;;;;;;;;;;;;;25.50;38.46;100100.44;5017957;28;20340;-79
2022/07/09 07:52:45;;;;;;;;;;;;;;;25.49;38.54;100096.91;5017499;28;19913;-78
2022/07/09 07:55:11;;;;;;;;;;;;;;;25.46;38.38;100096.66;5017534;28;19924;-80
2022/07/09 07:57:36;;;;;;;;;;;;;;;25.48;38.42;100100.72;5017740;28;19914;-78
2022/07/09 08:00:02;;;;;;;;;;;;;;;25.49;38.20;100101.53;5017494;28;20010;-77
2022/07/09 08:02:27;;;;;;;;;;;;;;;25.43;38.41;100097.25;5017324;28;19914;-79
2022/07/09 08:04:52;;;;;;;;;;;;;;;25.45;38.28;100092.28;5017939;28;20363;-78
2022/07/09 08:07:18;;;;;;;;;;;;;;;25.48;38.16;100099.91;5017596;28;19914;-78
2022/07/09 08:09:43;;;;;;;;;;;;;;;25.46;38.37;100089.28;5017648;28;20294;-77
2022/07/09 08:12:08;;;;;;;;;;;;;;;25.49;38.29;100093.31;5017324;28;19913;-79
2022/07/09 08:14:34;;;;;;;;;;;;;;;25.47;38.01;100084.59;5016873;28;19919;-78
2022/07/09 08:16:59;;;;;;;;;;;;;;;25.48;38.18;100087.03;5017425;28;19914;-80
2022/07/09 08:19:24;;;;;;;;;;;;;;;25.46;38.03;100085.72;5017673;28;20012;-80
2022/07/09 08:21:49;;;;;;;;;;;;;;;25.47;38.09;100082.69;5017507;28;20005;-81
2022/07/09 08:24:15;;;;;;;;;;;;;;;25.47;37.99;100079.97;5017257;28;20319;-79
2022/07/09 08:26:40;;;;;;;;;;;;;;;25.46;37.74;100074.78;5017658;28;19960;-78
2022/07/09 08:29:05;;;;;;;;;;;;;;;25.43;37.89;100078.09;5014944;28;19926;-79
2022/07/09 08:31:30;;;;;;;;;;;;;;;25.45;37.81;100081.34;4998247;28;19968;-79
2022/07/09 08:33:57;;;;;;;;;;;;;;;25.48;37.82;100078.84;4998044;28;19914;-78
2022/07/09 08:36:22;;;;;;;;;;;;;;;25.49;37.76;100079.66;4996621;28;19914;-78
2022/07/09 08:38:49;;;;;;;;;;;;;;;25.46;37.75;100081.06;4997576;28;19996;-79
2022/07/09 08:41:16;;;;;;;;;;;;;;;25.47;37.64;100081.88;5009390;28;19925;-81
2022/07/09 08:43:42;;;;;;;;;;;;;;;25.42;37.73;100080.03;5017026;28;19940;-78
2022/07/09 08:46:07;;;;;;;;;;;;;;;25.48;37.64;100086.25;5016971;28;20321;-79
2022/07/09 08:48:33;;;;;;;;;;;;;;;25.46;37.64;100083.00;5016919;28;19967;-79
2022/07/09 08:50:58;;;;;;;;;;;;;;;25.47;37.46;100076.41;5016858;28;19913;-78
2022/07/09 08:53:23;;;;;;;;;;;;;;;25.46;37.40;100081.06;4999184;28;19942;-78
2022/07/09 08:55:49;;;;;;;;;;;;;;;25.47;37.53;100079.13;5016873;28;19964;-80
2022/07/09 08:58:14;;;;;;;;;;;;;;;25.44;37.78;100072.34;5017131;28;19969;-81
2022/07/09 09:00:42;;;;;;;;;;;;;;;25.44;37.68;100071.50;5016331;28;19913;-83
2022/07/09 09:03:08;;;;;;;;;;;;;;;25.43;37.61;100064.44;5016560;28;19913;-79
2022/07/09 09:05:33;;;;;;;;;;;;;;;25.48;37.50;100062.44;5016489;28;20417;-78
2022/07/09 09:07:58;;;;;;;;;;;;;;;25.42;37.59;100055.41;5016166;28;19921;-79
2022/07/09 09:10:24;;;;;;;;;;;;;;;25.47;37.66;100057.25;5016426;28;19920;-78
2022/07/09 09:12:55;;;;;;;;;;;;;;;25.45;37.50;100056.72;5016635;28;19913;-80
2022/07/09 09:15:20;;;;;;;;;;;;;;;25.49;37.58;100052.28;5015904;28;19917;-79
2022/07/09 09:17:45;;;;;;;;;;;;;;;25.48;37.45;100047.94;5016334;28;20360;-81
2022/07/09 09:20:11;;;;;;;;;;;;;;;25.43;37.42;100042.53;5016127;28;19913;-81
2022/07/09 09:22:43;;;;;;;;;;;;;;;25.42;37.58;100035.44;5015931;28;19919;-79
2022/07/09 09:25:08;;;;;;;;;;;;;;;25.48;37.18;100035.06;4998268;28;20348;-79
2022/07/09 09:27:33;;;;;;;;;;;;;;;25.47;37.24;100035.34;4998301;28;19919;-77
2022/07/09 09:29:59;;;;;;;;;;;;;;;25.45;37.11;100035.66;5015806;28;19968;-76
2022/07/09 09:32:24;;;;;;;;;;;;;;;25.39;37.46;100038.75;5015575;28;20323;-79
2022/07/09 09:34:50;;;;;;;;;;;;;;;25.38;37.20;100035.22;5015702;28;19917;-79
2022/07/09 09:37:24;;;;;;;;;;;;;;;25.44;37.32;100033.22;5016038;28;20322;-79
2022/07/09 09:39:49;;;;;;;;;;;;;;;25.44;37.12;100033.22;4997350;28;19954;-79
2022/07/09 09:42:14;;;;;;;;;;;;;;;25.45;37.10;100030.19;5014883;28;19913;-80
2022/07/09 09:44:40;;;;;;;;;;;;;;;25.48;37.11;100034.25;5014576;28;19924;-80
2022/07/09 09:47:07;;;;;;;;;;;;;;;25.47;36.90;100027.16;5013958;28;19949;-80
2022/07/09 09:49:32;;;;;;;;;;;;;;;25.44;37.13;100016.78;5015147;28;19921;-79
2022/07/09 09:52:07;;;;;;;;;;;;;;;25.47;37.10;100017.03;5014637;28;19913;-78
2022/07/09 09:54:33;;;;;;;;;;;;;;;25.46;36.98;100009.13;5015446;28;19913;-78
2022/07/09 09:56:59;;;;;;;;;;;;;;;25.48;36.98;100012.38;5014065;28;20332;-78
2022/07/09 09:59:24;;;;;;;;;;;;;;;25.46;36.96;100001.72;5015187;28;19917;-77
2022/07/09 10:01:49;;;;;;;;;;;;;;;25.44;37.23;99997.66;5015266;28;19921;-76
2022/07/09 10:04:15;;;;;;;;;;;;;;;25.48;37.03;100001.44;5015493;28;20396;-79
2022/07/09 10:06:41;;;;;;;;;;;;;;;25.50;37.01;99996.47;5014712;28;20268;-78
2022/07/09 10:09:07;;;;;;;;;;;;;;;25.50;36.94;99999.22;5014827;28;19914;-80
2022/07/09 10:11:41;;;;;;;;;;;;;;;25.44;37.03;100000.38;5015068;28;20344;-80
2022/07/09 10:14:07;;;;;;;;;;;;;;;25.47;37.09;99991.59;5014951;28;19913;-79
2022/07/09 10:16:36;;;;;;;;;;;;;;;25.47;37.00;99988.84;5014955;28;19940;-81
2022/07/09 10:19:01;;;;;;;;;;;;;;;25.50;36.91;99985.53;5014827;28;20103;-81
2022/07/09 10:21:36;;;;;;;;;;;;;;;25.51;37.01;99984.44;5014794;28;19960;-81
2022/07/09 10:24:02;;;;;;;;;;;;;;;25.49;36.90;99981.16;5015230;28;19975;-81
2022/07/09 10:26:49;;;;;;;;;;;;;;;25.47;36.86;99988.84;5014817;28;19915;-82
2022/07/09 10:29:21;;;;;;;;;;;;;;;25.49;37.25;99984.72;5014960;28;19913;-79
2022/07/09 10:31:46;;;;;;;;;;;;;;;25.48;37.03;99987.75;5015286;28;20007;-78
2022/07/09 10:34:14;;;;;;;;;;;;;;;25.51;37.27;99987.16;5015219;28;19960;-80
2022/07/09 10:36:39;;;;;;;;;;;;;;;25.47;37.16;99983.38;5013741;28;19967;-81
2022/07/09 10:39:11;;;;;;;;;;;;;;;25.40;37.59;99982.94;5014690;28;19913;-78
2022/07/09 10:41:36;;;;;;;;;;;;;;;25.43;37.26;99982.38;5014546;28;19918;-82
2022/07/09 10:44:02;;;;;;;;;;;;;;;25.42;37.34;99980.72;5015123;28;20340;-78
2022/07/09 10:46:28;;;;;;;;;;;;;;;25.44;37.23;99968.38;5014693;28;19952;-78
2022/07/09 10:48:54;;;;;;;;;;;;;;;25.44;37.35;99978.50;5014031;28;19948;-77
2022/07/09 10:51:20;;;;;;;;;;;;;;;25.40;37.47;99969.28;5013943;28;20430;-79
2022/07/09 10:53:45;;;;;;;;;;;;;;;25.36;37.42;99971.00;5018881;28;20267;-78
2022/07/09 10:56:11;;;;;;;;;;;;;;;25.44;37.28;99967.56;5018630;28;19917;-80
2022/07/09 10:58:36;;;;;;;;;;;;;;;25.42;37.26;99969.78;5017437;28;19920;-81
2022/07/09 11:01:04;;;;;;;;;;;;;;;25.40;37.20;99966.53;5017654;28;20264;-77
2022/07/09 11:03:30;;;;;;;;;;;;;;;25.36;37.52;99966.31;5018577;28;19925;-79
2022/07/09 11:05:55;;;;;;;;;;;;;;;25.45;37.08;99961.00;5018450;28;20265;-77
2022/07/09 11:08:21;;;;;;;;;;;;;;;25.34;37.42;99957.59;5018818;28;19917;-78
2022/07/09 11:10:46;;;;;;;;;;;;;;;25.36;37.16;99955.38;5018569;28;20366;-79
2022/07/09 11:13:11;;;;;;;;;;;;;;;25.28;37.49;99951.41;5018658;28;19913;-80
2022/07/09 11:15:37;;;;;;;;;;;;;;;25.37;37.61;99961.66;5018422;28;20040;-80
2022/07/09 11:18:10;;;;;;;;;;;;;;;25.35;37.16;99952.94;5018321;28;20387;-79
2022/07/09 11:20:39;;;;;;;;;;;;;;;25.33;37.32;99955.16;5018523;28;19920;-82
2022/07/09 11:23:05;;;;;;;;;;;;;;;25.38;37.28;99950.41;5017863;28;19918;-81
2022/07/09 11:25:30;;;;;;;;;;;;;;;25.36;37.50;99954.56;5016463;28;19963;-78
2022/07/09 11:27:56;;;;;;;;;;;;;;;25.32;37.27;99948.88;5017848;28;19913;-78
2022/07/09 11:30:21;;;;;;;;;;;;;;;25.37;37.36;99945.25;5007784;28;20371;-78
2022/07/09 11:32:47;;;;;;;;;;;;;;;25.35;37.43;99942.00;4998222;28;20316;-79
2022/07/09 11:35:12;;;;;;;;;;;;;;;25.35;37.15;99937.34;4998472;28;20355;-79
2022/07/09 11:37:37;;;;;;;;;;;;;;;25.23;37.47;99929.56;4998238;28;20340;-79
2022/07/09 11:40:03;;;;;;;;;;;;;;;25.39;37.10;99937.53;5000140;28;19914;-81
2022/07/09 11:42:28;;;;;;;;;;;;;;;25.32;37.24;99937.13;5017361;28;19948;-81
2022/07/09 11:44:54;;;;;;;;;;;;;;;25.24;37.43;99925.72;5017736;28;19948;-78
2022/07/09 11:47:22;;;;;;;;;;;;;;;25.35;37.31;99936.53;5018159;28;19913;-77
2022/07/09 11:49:50;;;;;;;;;;;;;;;25.31;37.00;99922.63;5017431;28;19917;-77
2022/07/09 11:52:22;;;;;;;;;;;;;;;25.29;37.07;99922.13;5017496;28;19921;-78
2022/07/09 11:54:54;;;;;;;;;;;;;;;25.34;37.17;99924.78;5017005;28;20387;-78
2022/07/09 11:57:20;;;;;;;;;;;;;;;25.40;37.13;99912.63;5017804;28;19921;-77
2022/07/09 11:59:45;;;;;;;;;;;;;;;25.34;36.90;99915.78;5017502;28;19913;-78
2022/07/09 12:02:10;;;;;;;;;;;;;;;25.39;37.14;99912.94;5017425;28;19941;-79
2022/07/09 12:04:36;;;;;;;;;;;;;;;25.28;37.29;99910.38;5016371;28;19921;-81
2022/07/09 12:07:01;;;;;;;;;;;;;;;25.30;37.21;99912.78;5017255;28;20382;-79
2022/07/09 12:09:30;;;;;;;;;;;;;;;25.33;37.10;99916.88;5017693;28;19917;-77
2022/07/09 12:11:55;;;;;;;;;;;;;;;25.28;37.28;99910.38;5017252;28;19913;-78
2022/07/09 12:14:20;;;;;;;;;;;;;;;25.35;37.21;99892.78;5017211;28;20368;-78
2022/07/09 12:16:45;;;;;;;;;;;;;;;25.37;36.91;99885.06;4999696;28;20004;-78
2022/07/09 12:19:11;;;;;;;;;;;;;;;25.36;36.80;99878.81;5017121;28;19913;-78
2022/07/09 12:21:36;;;;;;;;;;;;;;;25.30;37.25;99880.81;5016665;28;20421;-78
2022/07/09 12:24:01;;;;;;;;;;;;;;;25.30;36.98;99878.06;5017043;28;19917;-81
2022/07/09 12:26:27;;;;;;;;;;;;;;;25.39;36.74;99872.72;5017202;28;20363;-82
2022/07/09 12:28:52;;;;;;;;;;;;;;;25.33;37.05;99875.84;5017284;28;20001;-78
2022/07/09 12:31:17;;;;;;;;;;;;;;;25.39;36.92;99871.91;5016772;28;19913;-78